createdAt,value
2019-05-10T00:00:07.732Z,99413.14
2019-05-10T00:02:54.270Z,99420.82
2019-05-10T00:05:40.889Z,99419.16
2019-05-10T00:08:27.417Z,99423.31
2019-05-10T00:11:27.193Z,99416.98
2019-05-10T00:14:02.323Z,99421.64
2019-05-10T00:16:30.848Z,99416.98
2019-05-10T00:18:59.601Z,99415.31
2019-05-10T00:21:28.121Z,99418.98
2019-05-10T00:23:56.655Z,99426.66
2019-05-10T00:26:25.187Z,99437.67
2019-05-10T00:28:53.708Z,99417.98
2019-05-10T00:31:22.231Z,99409.30
2019-05-10T00:33:50.735Z,99413.28
2019-05-10T00:36:19.377Z,99411.60
2019-05-10T00:38:47.884Z,99418.28
2019-05-10T00:41:16.408Z,99416.13
2019-05-10T00:43:44.919Z,99415.45
2019-05-10T00:46:13.448Z,99413.81
2019-05-10T00:48:41.970Z,99419.33
2019-05-10T00:51:10.563Z,99415.64
2019-05-10T00:53:39.398Z,99411.63
2019-05-10T00:56:07.918Z,99413.65
2019-05-10T00:58:36.415Z,99412.97
2019-05-10T01:01:05.002Z,99420.66
2019-05-10T01:03:33.527Z,99426.78
2019-05-10T01:06:02.068Z,99423.45
2019-05-10T01:08:30.919Z,99431.63
2019-05-10T01:10:59.495Z,99424.41
2019-05-10T01:13:28.036Z,99425.41
2019-05-10T01:15:56.591Z,99423.91
2019-05-10T01:18:25.107Z,99428.24
2019-05-10T01:20:53.933Z,99434.25
2019-05-10T01:23:22.465Z,99437.55
2019-05-10T01:25:50.977Z,99440.22
2019-05-10T01:28:19.491Z,99438.75
2019-05-10T01:30:48.167Z,99439.75
2019-05-10T01:33:16.707Z,99449.88
2019-05-10T01:35:45.212Z,99446.05
2019-05-10T01:38:13.734Z,99450.18
2019-05-10T01:40:42.239Z,99453.05
2019-05-10T01:43:10.740Z,99452.88
2019-05-10T01:45:39.240Z,99464.22
2019-05-10T01:48:07.756Z,99464.22
2019-05-10T01:50:36.355Z,99462.72
2019-05-10T01:53:05.311Z,99461.55
2019-05-10T01:55:33.815Z,99464.72
2019-05-10T01:58:02.350Z,99475.05
2019-05-10T02:00:30.870Z,99477.55
2019-05-10T02:02:59.657Z,99472.84
2019-05-10T02:05:28.174Z,99479.85
2019-05-10T02:07:56.660Z,99481.52
2019-05-10T02:10:25.163Z,99490.34
2019-05-10T02:12:53.680Z,99486.67
2019-05-10T02:15:22.192Z,99492.45
2019-05-10T02:17:50.789Z,99490.22
2019-05-10T02:20:19.299Z,99489.80
2019-05-10T02:22:47.828Z,99502.30
2019-05-10T02:25:16.353Z,99505.27
2019-05-10T02:27:44.867Z,99504.09
2019-05-10T02:30:13.420Z,99505.44
2019-05-10T02:32:41.981Z,99506.59
2019-05-10T02:35:10.494Z,99506.54
2019-05-10T02:37:39.026Z,99512.52
2019-05-10T02:40:08.397Z,99509.69
2019-05-10T02:42:36.921Z,99518.16
2019-05-10T02:45:05.750Z,99516.64
2019-05-10T02:47:34.291Z,99519.93
2019-05-10T02:50:02.955Z,99524.08
2019-05-10T02:52:31.430Z,99528.06
2019-05-10T02:54:59.919Z,99528.78
2019-05-10T02:57:28.434Z,99534.83
2019-05-10T02:59:56.940Z,99531.50
2019-05-10T03:02:25.488Z,99528.78
2019-05-10T03:04:54.109Z,99539.75
2019-05-10T03:07:22.920Z,99531.73
2019-05-10T03:09:51.441Z,99534.56
2019-05-10T03:12:24.141Z,99544.88
2019-05-10T03:14:57.269Z,99541.53
2019-05-10T03:17:26.170Z,99538.19
2019-05-10T03:19:54.835Z,99535.80
2019-05-10T03:22:24.721Z,99543.95
2019-05-10T03:24:53.501Z,99544.45
2019-05-10T03:27:22.020Z,99543.42
2019-05-10T03:29:50.587Z,99547.58
2019-05-10T03:32:19.294Z,99551.72
2019-05-10T03:34:47.867Z,99553.70
2019-05-10T03:37:16.352Z,99556.16
2019-05-10T03:39:44.916Z,99558.20
2019-05-10T03:42:13.338Z,99563.58
2019-05-10T03:44:41.846Z,99565.66
2019-05-10T03:47:10.329Z,99569.36
2019-05-10T03:49:39.278Z,99570.07
2019-05-10T03:52:07.767Z,99566.78
2019-05-10T03:54:36.304Z,99565.24
2019-05-10T03:57:12.793Z,99569.89
2019-05-10T03:59:35.037Z,99573.20
2019-05-10T04:02:03.528Z,99573.20
2019-05-10T04:04:32.039Z,99579.02
2019-05-10T04:07:00.552Z,99579.37
2019-05-10T04:09:29.041Z,99584.04
2019-05-10T04:11:57.615Z,99588.59
2019-05-10T04:14:26.186Z,99595.00
2019-05-10T04:16:54.698Z,99601.09
2019-05-10T04:19:23.503Z,99603.20
2019-05-10T04:21:52.083Z,99603.98
2019-05-10T04:24:20.913Z,99609.77
2019-05-10T04:26:49.440Z,99612.19
2019-05-10T04:29:17.970Z,99617.95
2019-05-10T04:31:46.480Z,99619.70
2019-05-10T04:34:15.052Z,99620.42
2019-05-10T04:36:43.635Z,99623.82
2019-05-10T04:39:12.449Z,99633.26
2019-05-10T04:41:41.011Z,99625.80
2019-05-10T04:44:09.935Z,99627.97
2019-05-10T04:46:38.418Z,99633.65
2019-05-10T04:49:07.036Z,99639.06
2019-05-10T04:51:35.522Z,99637.38
2019-05-10T04:54:04.055Z,99642.89
2019-05-10T04:56:32.566Z,99644.61
2019-05-10T04:59:01.088Z,99647.80
2019-05-10T05:01:29.677Z,99648.45
2019-05-10T05:03:58.157Z,99643.95
2019-05-10T05:06:26.660Z,99648.78
2019-05-10T05:08:55.161Z,99654.47
2019-05-10T05:11:23.702Z,99648.91
2019-05-10T05:13:52.191Z,99651.66
2019-05-10T05:16:20.778Z,99656.75
2019-05-10T05:18:49.440Z,99654.81
2019-05-10T05:21:17.931Z,99659.58
2019-05-10T05:23:46.410Z,99655.02
2019-05-10T05:26:14.891Z,99655.41
2019-05-10T05:28:43.388Z,99664.65
2019-05-10T05:31:11.868Z,99661.41
2019-05-10T05:33:40.355Z,99668.20
2019-05-10T05:36:08.865Z,99674.78
2019-05-10T05:38:40.464Z,99667.00
2019-05-10T05:41:07.623Z,99673.95
2019-05-10T05:43:45.337Z,99667.71
2019-05-10T05:46:06.455Z,99672.00
2019-05-10T05:48:40.296Z,99672.80
2019-05-10T05:51:05.164Z,99679.63
2019-05-10T05:53:35.908Z,99671.73
2019-05-10T05:56:12.799Z,99675.38
2019-05-10T05:58:37.974Z,99679.41
2019-05-10T06:01:04.408Z,99672.83
2019-05-10T06:03:32.916Z,99683.05
2019-05-10T06:06:01.506Z,99685.88
2019-05-10T06:08:30.377Z,99680.63
2019-05-10T06:10:59.984Z,99681.20
2019-05-10T06:13:31.019Z,99682.16
2019-05-10T06:16:00.434Z,99683.38
2019-05-10T06:18:29.367Z,99679.88
2019-05-10T06:20:58.175Z,99690.48
2019-05-10T06:23:29.135Z,99685.06
2019-05-10T06:25:57.295Z,99691.76
2019-05-10T06:28:42.947Z,99690.31
2019-05-10T06:30:56.685Z,99685.62
2019-05-10T06:33:25.207Z,99692.86
2019-05-10T06:35:53.990Z,99687.04
2019-05-10T06:38:22.513Z,99694.93
2019-05-10T06:40:51.010Z,99697.49
2019-05-10T06:43:19.509Z,99705.43
2019-05-10T06:45:52.570Z,99713.94
2019-05-10T06:48:25.957Z,99709.82
2019-05-10T06:50:48.724Z,99719.17
2019-05-10T06:53:17.281Z,99710.05
2019-05-10T06:55:45.761Z,99714.22
2019-05-10T06:58:14.337Z,99717.30
2019-05-10T07:00:44.655Z,99715.97
2019-05-10T07:03:13.055Z,99722.59
2019-05-10T07:05:41.550Z,99725.05
2019-05-10T07:08:19.726Z,99721.92
2019-05-10T07:10:40.272Z,99722.12
2019-05-10T07:13:08.799Z,99733.25
2019-05-10T07:15:42.006Z,99726.19
2019-05-10T07:18:07.832Z,99732.66
2019-05-10T07:20:36.361Z,99734.86
2019-05-10T07:23:06.092Z,99730.27
2019-05-10T07:25:37.932Z,99737.52
2019-05-10T07:28:09.570Z,99736.64
2019-05-10T07:30:36.542Z,99734.73
2019-05-10T07:33:05.071Z,99729.75
2019-05-10T07:35:36.916Z,99740.69
2019-05-10T07:41:32.375Z,99741.83
2019-05-10T07:44:08.106Z,99745.59
2019-05-10T07:46:31.176Z,99749.14
2019-05-10T07:48:59.713Z,99750.63
2019-05-10T07:51:28.778Z,99753.28
2019-05-10T07:54:04.786Z,99749.74
2019-05-10T07:56:28.712Z,99759.09
2019-05-10T07:59:00.467Z,99755.86
2019-05-10T08:01:32.174Z,99771.14
2019-05-10T08:03:59.179Z,99768.25
2019-05-10T08:06:33.903Z,99780.59
2019-05-10T08:09:01.919Z,99779.09
2019-05-10T08:11:28.661Z,99774.87
2019-05-10T08:14:05.856Z,99775.04
2019-05-10T08:16:29.050Z,99786.77
2019-05-10T08:19:00.966Z,99783.69
2019-05-10T08:23:59.029Z,99777.41
2019-05-10T08:26:25.528Z,99785.20
2019-05-10T08:28:54.031Z,99782.73
2019-05-10T08:31:25.938Z,99780.50
2019-05-10T08:33:58.340Z,99777.08
2019-05-10T08:36:22.943Z,99784.50
2019-05-10T08:39:04.977Z,99784.11
2019-05-10T08:44:16.579Z,99800.94
2019-05-10T08:46:41.204Z,99803.05
2019-05-10T08:49:07.276Z,99803.02
2019-05-10T08:51:44.185Z,99807.61
2019-05-10T08:54:06.044Z,99794.90
2019-05-10T08:56:34.634Z,99802.05
2019-05-10T08:59:04.045Z,99796.16
2019-05-10T09:01:42.815Z,99791.84
2019-05-10T09:04:06.887Z,99802.33
2019-05-10T09:06:33.259Z,99799.56
2019-05-10T09:09:03.566Z,99801.48
2019-05-10T09:11:32.815Z,99805.02
2019-05-10T09:14:03.212Z,99804.38
2019-05-10T09:16:39.186Z,99805.27
2019-05-10T09:19:02.647Z,99802.30
2019-05-10T09:21:32.199Z,99819.30
2019-05-10T09:24:03.402Z,99816.04
2019-05-10T09:26:32.185Z,99807.81
2019-05-10T09:29:01.636Z,99816.58
2019-05-10T09:31:32.691Z,99812.14
2019-05-10T09:34:02.480Z,99816.28
2019-05-10T09:36:36.035Z,99816.91
2019-05-10T09:39:03.369Z,99824.80
2019-05-10T09:41:36.068Z,99822.20
2019-05-10T09:44:03.026Z,99830.89
2019-05-10T09:46:32.445Z,99824.22
2019-05-10T09:49:13.722Z,99819.52
2019-05-10T09:51:33.122Z,99824.30
2019-05-10T09:54:01.529Z,99813.30
2019-05-10T09:56:32.981Z,99817.39
2019-05-10T09:59:00.733Z,99816.94
2019-05-10T10:01:29.264Z,99824.89
2019-05-10T10:04:01.658Z,99814.00
2019-05-10T10:06:29.853Z,99819.47
2019-05-10T10:09:01.040Z,99822.30
2019-05-10T10:11:28.720Z,99817.94
2019-05-10T10:14:00.021Z,99816.27
2019-05-10T10:16:28.176Z,99820.53
2019-05-10T10:18:56.840Z,99824.94
2019-05-10T10:21:34.940Z,99833.70
2019-05-10T10:23:59.951Z,99825.52
2019-05-10T10:26:26.887Z,99825.88
2019-05-10T10:28:59.508Z,99826.39
2019-05-10T10:31:30.462Z,99825.83
2019-05-10T10:33:59.650Z,99832.30
2019-05-10T10:36:27.448Z,99826.03
2019-05-10T10:38:56.212Z,99821.25
2019-05-10T10:41:31.194Z,99812.13
2019-05-10T10:43:55.019Z,99819.52
2019-05-10T10:46:23.598Z,99819.29
2019-05-10T10:48:52.111Z,99819.66
2019-05-10T10:51:20.633Z,99812.73
2019-05-10T10:53:49.199Z,99806.21
2019-05-10T10:56:17.773Z,99804.23
2019-05-10T10:58:49.577Z,99809.94
2019-05-10T11:01:21.707Z,99796.66
2019-05-10T11:03:48.886Z,99799.31
2019-05-10T11:06:17.412Z,99811.05
2019-05-10T11:08:46.194Z,99799.99
2019-05-10T11:11:14.893Z,99807.30
2019-05-10T11:13:45.935Z,99803.61
2019-05-10T11:16:15.690Z,99787.39
2019-05-10T11:18:44.473Z,99793.06
2019-05-10T11:21:12.979Z,99790.77
2019-05-10T11:23:42.106Z,99796.63
2019-05-10T11:26:10.977Z,99789.04
2019-05-10T11:28:43.882Z,99791.01
2019-05-10T11:31:11.378Z,99779.05
2019-05-10T11:33:41.577Z,99784.47
2019-05-10T11:36:11.429Z,99781.81
2019-05-10T11:38:42.050Z,99775.98
2019-05-10T11:41:13.647Z,99782.08
2019-05-10T11:43:41.936Z,99780.66
2019-05-10T11:46:11.761Z,99767.84
2019-05-10T11:48:42.214Z,99770.75
2019-05-10T11:51:12.449Z,99773.94
2019-05-10T11:56:13.989Z,99785.73
2019-05-10T11:58:45.967Z,99788.20
2019-05-10T12:01:17.351Z,99774.94
2019-05-10T12:03:42.387Z,99779.16
2019-05-10T12:06:12.194Z,99774.69
2019-05-10T12:08:41.840Z,99774.38
2019-05-10T12:11:25.508Z,99770.17
2019-05-10T12:13:40.890Z,99787.48
2019-05-10T12:16:12.434Z,99779.73
2019-05-10T12:18:46.314Z,99777.20
2019-05-10T12:21:11.333Z,99787.70
2019-05-10T12:23:49.383Z,99774.47
2019-05-10T12:26:18.021Z,99777.63
2019-05-10T12:28:40.917Z,99773.42
2019-05-10T12:31:15.126Z,99767.23
2019-05-10T12:33:42.900Z,99772.97
2019-05-10T12:36:22.377Z,99779.81
2019-05-10T12:38:41.766Z,99770.65
2019-05-10T12:41:10.283Z,99773.39
2019-05-10T12:43:40.871Z,99768.56
2019-05-10T12:46:11.107Z,99782.89
2019-05-10T12:48:39.900Z,99778.13
2019-05-10T12:51:11.863Z,99767.42
2019-05-10T12:53:44.466Z,99774.38
2019-05-10T12:56:08.883Z,99778.71
2019-05-10T12:58:37.425Z,99763.62
2019-05-10T13:01:05.926Z,99771.59
2019-05-10T13:03:34.440Z,99772.37
2019-05-10T13:06:02.974Z,99774.03
2019-05-10T13:08:31.806Z,99778.27
2019-05-10T13:11:00.465Z,99787.16
2019-05-10T13:13:29.975Z,99781.30
2019-05-10T13:16:03.713Z,99777.42
2019-05-10T13:18:53.395Z,99779.27
2019-05-10T13:20:59.656Z,99781.81
2019-05-10T13:23:28.148Z,99780.39
2019-05-10T13:25:56.766Z,99778.38
2019-05-10T13:28:25.266Z,99779.25
2019-05-10T13:30:53.829Z,99787.26
2019-05-10T13:33:28.888Z,99773.95
2019-05-10T13:35:56.497Z,99775.41
2019-05-10T13:38:23.161Z,99775.61
2019-05-10T13:40:51.660Z,99774.31
2019-05-10T13:43:26.434Z,99776.92
2019-05-10T13:45:50.462Z,99776.23
2019-05-10T13:48:18.973Z,99781.34
2019-05-10T13:50:47.497Z,99779.19
2019-05-10T13:53:21.077Z,99784.91
2019-05-10T13:55:46.220Z,99783.31
2019-05-10T13:58:15.105Z,99782.08
2019-05-10T14:00:44.118Z,99786.14
2019-05-10T14:03:13.571Z,99781.28
2019-05-10T14:05:42.168Z,99783.23
2019-05-10T14:08:10.668Z,99784.66
2019-05-10T14:10:39.181Z,99779.19
2019-05-10T14:13:07.664Z,99781.54
2019-05-10T14:15:36.163Z,99783.77
2019-05-10T14:18:04.686Z,99780.86
2019-05-10T14:20:33.209Z,99774.14
2019-05-10T14:23:01.779Z,99776.39
2019-05-10T14:25:36.152Z,99773.13
2019-05-10T14:28:01.250Z,99775.78
2019-05-10T14:30:30.251Z,99777.30
2019-05-10T14:32:58.737Z,99769.58
2019-05-10T14:35:27.396Z,99775.92
2019-05-10T14:38:06.916Z,99771.62
2019-05-10T14:40:28.428Z,99772.02
2019-05-10T14:42:56.569Z,99780.19
2019-05-10T14:45:25.165Z,99770.70
2019-05-10T14:47:53.731Z,99769.58
2019-05-10T14:50:26.233Z,99773.88
2019-05-10T14:52:52.719Z,99771.70
2019-05-10T14:55:21.260Z,99783.41
2019-05-10T14:57:49.794Z,99770.25
2019-05-10T15:00:18.590Z,99782.63
2019-05-10T15:02:47.093Z,99771.27
2019-05-10T15:05:18.029Z,99784.27
2019-05-10T15:07:45.828Z,99783.47
2019-05-10T15:10:14.377Z,99782.73
2019-05-10T15:12:43.154Z,99783.11
2019-05-10T15:15:11.739Z,99781.98
2019-05-10T15:17:40.611Z,99780.08
2019-05-10T15:20:09.125Z,99790.48
2019-05-10T15:22:37.694Z,99782.48
2019-05-10T15:25:06.581Z,99779.73
2019-05-10T15:27:35.090Z,99779.77
2019-05-10T15:30:05.995Z,99788.13
2019-05-10T15:32:34.098Z,99790.34
2019-05-10T15:35:07.161Z,99786.54
2019-05-10T15:37:32.932Z,99777.94
2019-05-10T15:40:06.238Z,99779.85
2019-05-10T15:42:36.342Z,99781.06
2019-05-10T15:45:05.161Z,99776.78
2019-05-10T15:47:32.350Z,99782.52
2019-05-10T15:50:01.620Z,99785.84
2019-05-10T15:52:30.269Z,99784.17
2019-05-10T15:54:58.817Z,99779.98
2019-05-10T15:57:27.322Z,99785.97
2019-05-10T15:59:59.123Z,99787.73
2019-05-10T16:02:26.470Z,99791.81
2019-05-10T16:04:55.756Z,99792.20
2019-05-10T16:07:24.360Z,99796.02
2019-05-10T16:09:54.472Z,99790.94
2019-05-10T16:12:23.083Z,99793.66
2019-05-10T16:14:51.654Z,99790.16
2019-05-10T16:17:23.832Z,99800.20
2019-05-10T16:19:58.897Z,99795.49
2019-05-10T16:22:25.383Z,99796.20
2019-05-10T16:24:50.907Z,99805.61
2019-05-10T16:27:19.436Z,99798.22
2019-05-10T16:29:47.981Z,99797.83
2019-05-10T16:32:16.523Z,99804.91
2019-05-10T16:34:45.046Z,99795.06
2019-05-10T16:37:13.640Z,99798.75
2019-05-10T16:39:42.223Z,99806.72
2019-05-10T16:42:10.829Z,99809.64
2019-05-10T16:44:39.489Z,99804.28
2019-05-10T16:47:08.176Z,99799.45
2019-05-10T16:49:36.682Z,99795.89
2019-05-10T16:52:05.230Z,99801.11
2019-05-10T16:54:33.740Z,99792.41
2019-05-10T16:57:02.393Z,99789.70
2019-05-10T16:59:31.457Z,99787.05
2019-05-10T17:02:04.125Z,99783.95
2019-05-10T17:04:32.091Z,99785.70
2019-05-10T17:07:00.889Z,99781.09
2019-05-10T17:09:29.439Z,99784.16
2019-05-10T17:11:59.182Z,99782.38
2019-05-10T17:14:27.837Z,99779.75
2019-05-10T17:16:58.805Z,99770.38
2019-05-10T17:19:27.996Z,99778.63
2019-05-10T17:21:57.459Z,99768.24
2019-05-10T17:24:26.096Z,99769.59
2019-05-10T17:26:54.678Z,99762.34
2019-05-10T17:29:23.232Z,99755.87
2019-05-10T17:31:51.740Z,99767.38
2019-05-10T17:34:29.031Z,99762.03
2019-05-10T17:36:51.566Z,99767.59
2019-05-10T17:39:26.073Z,99768.62
2019-05-10T17:41:51.375Z,99765.42
2019-05-10T17:44:23.132Z,99762.52
2019-05-10T17:46:55.439Z,99761.98
2019-05-10T17:49:20.969Z,99752.01
2019-05-10T17:51:49.491Z,99751.06
2019-05-10T17:54:17.994Z,99755.55
2019-05-10T17:56:46.559Z,99755.24
2019-05-10T17:59:15.137Z,99761.86
2019-05-10T18:01:43.725Z,99753.53
2019-05-10T18:04:12.231Z,99753.03
2019-05-10T18:06:40.734Z,99761.38
2019-05-10T18:09:09.471Z,99768.31
2019-05-10T18:11:42.779Z,99763.73
2019-05-10T18:14:12.499Z,99766.86
2019-05-10T18:16:41.801Z,99759.44
2019-05-10T18:19:08.735Z,99768.40
2019-05-10T18:21:37.232Z,99778.15
2019-05-10T18:24:05.816Z,99779.67
2019-05-10T18:26:39.713Z,99788.89
2019-05-10T18:29:04.583Z,99795.57
2019-05-10T18:31:33.092Z,99796.23
2019-05-10T18:34:01.576Z,99795.80
2019-05-10T18:36:50.303Z,99790.80
2019-05-10T18:39:00.734Z,99794.41
2019-05-10T18:41:29.384Z,99797.38
2019-05-10T18:43:57.894Z,99800.12
2019-05-10T18:46:26.406Z,99799.83
2019-05-10T18:48:54.987Z,99803.98
2019-05-10T18:51:24.569Z,99788.69
2019-05-10T18:53:53.772Z,99794.73
2019-05-10T18:56:25.446Z,99796.29
2019-05-10T18:58:52.563Z,99790.36
2019-05-10T19:01:21.076Z,99790.48
2019-05-10T19:03:49.691Z,99786.95
2019-05-10T19:06:18.212Z,99789.55
2019-05-10T19:08:47.031Z,99785.89
2019-05-10T19:11:15.632Z,99780.38
2019-05-10T19:13:48.024Z,99786.73
2019-05-10T19:16:14.456Z,99793.56
2019-05-10T19:18:42.954Z,99792.31
2019-05-10T19:21:11.506Z,99788.27
2019-05-10T19:23:40.015Z,99786.81
2019-05-10T19:26:08.549Z,99793.75
2019-05-10T19:28:37.047Z,99803.41
2019-05-10T19:31:05.559Z,99805.48
2019-05-10T19:33:36.631Z,99811.59
2019-05-10T19:36:12.545Z,99824.58
2019-05-10T19:38:34.865Z,99828.58
2019-05-10T19:41:03.646Z,99836.38
2019-05-10T19:43:32.151Z,99840.82
2019-05-10T19:46:00.708Z,99843.47
2019-05-10T19:48:35.133Z,99844.64
2019-05-10T19:51:02.899Z,99848.80
2019-05-10T19:53:29.885Z,99850.68
2019-05-10T19:55:59.213Z,99850.59
2019-05-10T19:58:32.310Z,99850.27
2019-05-10T20:00:58.258Z,99849.23
2019-05-10T20:03:27.125Z,99849.55
2019-05-10T20:05:55.652Z,99845.30
2019-05-10T20:08:24.226Z,99830.36
2019-05-10T20:10:52.741Z,99846.03
2019-05-10T20:13:21.259Z,99840.32
2019-05-10T20:15:50.176Z,99835.27
2019-05-10T20:18:18.701Z,99831.91
2019-05-10T20:20:47.229Z,99832.22
2019-05-10T20:23:15.734Z,99830.12
2019-05-10T20:25:44.602Z,99831.63
2019-05-10T20:28:13.119Z,99823.50
2019-05-10T20:30:41.680Z,99833.58
2019-05-10T20:33:10.247Z,99833.48
2019-05-10T20:35:38.995Z,99830.91
2019-05-10T20:38:07.517Z,99830.05
2019-05-10T20:40:37.220Z,99836.86
2019-05-10T20:43:05.850Z,99848.89
2019-05-10T20:45:34.345Z,99852.73
2019-05-10T20:48:02.876Z,99855.41
2019-05-10T20:50:31.361Z,99849.71
2019-05-10T20:52:59.889Z,99856.45
2019-05-10T20:55:28.370Z,99859.03
2019-05-10T20:57:56.875Z,99854.98
2019-05-10T21:00:25.408Z,99854.97
2019-05-10T21:02:54.343Z,99852.59
2019-05-10T21:05:22.889Z,99854.03
2019-05-10T21:07:51.393Z,99855.30
2019-05-10T21:10:19.941Z,99845.34
2019-05-10T21:12:48.763Z,99837.25
2019-05-10T21:15:17.301Z,99837.45
2019-05-10T21:17:46.041Z,99845.81
2019-05-10T21:20:14.689Z,99833.95
2019-05-10T21:22:43.205Z,99831.84
2019-05-10T21:25:11.710Z,99825.95
2019-05-10T21:27:40.536Z,99827.93
2019-05-10T21:30:09.211Z,99815.09
2019-05-10T21:32:37.807Z,99822.38
2019-05-10T21:35:06.316Z,99828.95
2019-05-10T21:37:35.169Z,99821.83
2019-05-10T21:40:03.804Z,99826.96
2019-05-10T21:42:32.318Z,99808.70
2019-05-10T21:45:01.100Z,99796.70
2019-05-10T21:47:30.054Z,99797.62
2019-05-10T21:49:58.601Z,99798.98
2019-05-10T21:52:27.341Z,99807.16
2019-05-10T21:54:55.857Z,99806.63
2019-05-10T21:57:24.351Z,99803.11
2019-05-10T21:59:53.041Z,99796.95
2019-05-10T22:02:21.566Z,99791.03
2019-05-10T22:04:50.159Z,99781.00
2019-05-10T22:07:18.691Z,99771.78
2019-05-10T22:09:47.281Z,99771.91
2019-05-10T22:12:15.783Z,99764.86
2019-05-10T22:14:44.718Z,99772.19
2019-05-10T22:17:13.216Z,99761.77
2019-05-10T22:19:41.728Z,99752.36
2019-05-10T22:22:10.262Z,99744.09
2019-05-10T22:24:38.774Z,99737.77
2019-05-10T22:27:07.614Z,99734.06
2019-05-10T22:29:36.125Z,99730.99
2019-05-10T22:32:04.627Z,99728.17
2019-05-10T22:34:33.157Z,99726.11
2019-05-10T22:37:01.694Z,99726.64
2019-05-10T22:39:30.270Z,99726.00
2019-05-10T22:41:58.840Z,99729.77
2019-05-10T22:44:27.371Z,99736.70
2019-05-10T22:46:55.911Z,99736.73
2019-05-10T22:49:24.455Z,99734.37
2019-05-10T22:51:52.951Z,99724.12
2019-05-10T22:54:21.460Z,99720.03
2019-05-10T22:56:50.417Z,99710.13
2019-05-10T22:59:18.943Z,99704.61
2019-05-10T23:01:47.485Z,99714.20
2019-05-10T23:04:16.021Z,99709.66
2019-05-10T23:06:44.570Z,99708.66
2019-05-10T23:09:24.305Z,99708.02
2019-05-10T23:11:43.397Z,99705.31
2019-05-10T23:14:11.916Z,99716.72
2019-05-10T23:16:40.433Z,99724.61
2019-05-10T23:19:08.952Z,99720.91
2019-05-10T23:21:37.472Z,99719.37
2019-05-10T23:24:10.720Z,99720.67
2019-05-10T23:26:39.229Z,99711.03
2019-05-10T23:29:07.755Z,99715.22
2019-05-10T23:31:36.557Z,99718.49
2019-05-10T23:34:05.422Z,99715.60
2019-05-10T23:36:33.930Z,99712.05
2019-05-10T23:39:02.837Z,99716.44
2019-05-10T23:41:31.354Z,99724.86
2019-05-10T23:43:59.865Z,99720.23
2019-05-10T23:46:28.413Z,99722.31
2019-05-10T23:49:00.170Z,99712.64
2019-05-10T23:51:28.677Z,99710.42
2019-05-10T23:53:57.204Z,99706.34
2019-05-10T23:56:25.732Z,99705.00
2019-05-10T23:58:54.226Z,99691.92
